sensor_id;sensor_type;location;lat;lon;timestamp;pressure;altitude;pressure_sealevel;temperature;humidity
26937;BME280;14495;48.116;11.676;2023-10-08T00:01:19;96358.66;;;16.07;54.27
26937;BME280;14495;48.116;11.676;2023-10-08T00:03:48;96353.16;;;16.10;54.27
26937;BME280;14495;48.116;11.676;2023-10-08T00:06:18;96354.00;;;16.11;54.45
26937;BME280;14495;48.116;11.676;2023-10-08T00:08:47;96349.09;;;16.17;54.78
26937;BME280;14495;48.116;11.676;2023-10-08T00:11:13;96340.91;;;16.33;54.31
26937;BME280;14495;48.116;11.676;2023-10-08T00:13:42;96332.16;;;16.33;54.27
26937;BME280;14495;48.116;11.676;2023-10-08T00:16:11;96321.34;;;16.24;55.22
26937;BME280;14495;48.116;11.676;2023-10-08T00:18:39;96326.91;;;16.33;54.68
26937;BME280;14495;48.116;11.676;2023-10-08T00:21:15;96319.13;;;16.42;54.56
26937;BME280;14495;48.116;11.676;2023-10-08T00:23:40;96331.53;;;16.53;54.49
26937;BME280;14495;48.116;11.676;2023-10-08T00:26:15;96316.28;;;16.46;54.93
26937;BME280;14495;48.116;11.676;2023-10-08T00:28:44;96321.22;;;16.61;54.47
26937;BME280;14495;48.116;11.676;2023-10-08T00:31:14;96314.75;;;16.66;54.71
26937;BME280;14495;48.116;11.676;2023-10-08T00:33:43;96320.00;;;16.54;55.63
26937;BME280;14495;48.116;11.676;2023-10-08T00:36:10;96305.16;;;16.65;55.39
26937;BME280;14495;48.116;11.676;2023-10-08T00:38:46;96302.31;;;16.68;54.87
26937;BME280;14495;48.116;11.676;2023-10-08T00:41:17;96301.63;;;16.77;54.86
26937;BME280;14495;48.116;11.676;2023-10-08T00:43:48;96293.25;;;16.83;54.88
26937;BME280;14495;48.116;11.676;2023-10-08T00:46:15;96299.63;;;16.92;54.78
26937;BME280;14495;48.116;11.676;2023-10-08T00:49:02;96298.41;;;16.96;55.35
26937;BME280;14495;48.116;11.676;2023-10-08T00:51:46;96295.78;;;16.96;55.03
26937;BME280;14495;48.116;11.676;2023-10-08T00:54:12;96305.13;;;17.00;54.69
26937;BME280;14495;48.116;11.676;2023-10-08T00:56:45;96303.09;;;17.04;55.39
26937;BME280;14495;48.116;11.676;2023-10-08T00:59:18;96296.00;;;17.04;55.97
26937;BME280;14495;48.116;11.676;2023-10-08T01:01:49;96295.31;;;17.13;54.21
26937;BME280;14495;48.116;11.676;2023-10-08T01:04:25;96289.69;;;17.18;54.75
26937;BME280;14495;48.116;11.676;2023-10-08T01:07:00;96287.97;;;17.17;54.99
26937;BME280;14495;48.116;11.676;2023-10-08T01:09:41;96284.75;;;17.13;55.10
26937;BME280;14495;48.116;11.676;2023-10-08T01:12:11;96285.34;;;17.28;54.90
26937;BME280;14495;48.116;11.676;2023-10-08T01:14:59;96289.78;;;17.28;54.63
26937;BME280;14495;48.116;11.676;2023-10-08T01:17:43;96288.47;;;17.33;54.73
26937;BME280;14495;48.116;11.676;2023-10-08T01:20:18;96285.94;;;17.20;55.72
26937;BME280;14495;48.116;11.676;2023-10-08T01:23:15;96290.72;;;17.27;55.43
26937;BME280;14495;48.116;11.676;2023-10-08T01:25:46;96288.97;;;17.16;56.13
26937;BME280;14495;48.116;11.676;2023-10-08T01:28:32;96292.44;;;17.28;55.66
26937;BME280;14495;48.116;11.676;2023-10-08T01:31:00;96291.34;;;17.30;55.25
26937;BME280;14495;48.116;11.676;2023-10-08T01:33:31;96283.69;;;17.27;55.93
26937;BME280;14495;48.116;11.676;2023-10-08T01:35:57;96284.88;;;17.34;55.50
26937;BME280;14495;48.116;11.676;2023-10-08T01:38:30;96286.78;;;17.44;55.31
26937;BME280;14495;48.116;11.676;2023-10-08T01:40:56;96284.16;;;17.32;56.04
26937;BME280;14495;48.116;11.676;2023-10-08T01:43:22;96274.53;;;17.31;56.27
26937;BME280;14495;48.116;11.676;2023-10-08T01:45:48;96278.41;;;17.27;55.93
26937;BME280;14495;48.116;11.676;2023-10-08T01:48:14;96281.63;;;17.31;55.86
26937;BME280;14495;48.116;11.676;2023-10-08T01:50:57;96283.19;;;17.33;55.65
26937;BME280;14495;48.116;11.676;2023-10-08T01:53:27;96272.50;;;17.35;54.90
26937;BME280;14495;48.116;11.676;2023-10-08T01:55:52;96270.34;;;17.40;55.36
26937;BME280;14495;48.116;11.676;2023-10-08T01:58:19;96271.66;;;17.34;55.22
26937;BME280;14495;48.116;11.676;2023-10-08T02:00:48;96264.81;;;17.32;55.57
26937;BME280;14495;48.116;11.676;2023-10-08T02:03:14;96273.09;;;17.38;55.48
26937;BME280;14495;48.116;11.676;2023-10-08T02:05:45;96265.19;;;17.38;55.21
26937;BME280;14495;48.116;11.676;2023-10-08T02:08:11;96265.66;;;17.32;55.12
26937;BME280;14495;48.116;11.676;2023-10-08T02:10:41;96265.28;;;17.37;55.29
26937;BME280;14495;48.116;11.676;2023-10-08T02:13:13;96267.22;;;17.35;55.07
26937;BME280;14495;48.116;11.676;2023-10-08T02:15:48;96265.66;;;17.44;54.40
26937;BME280;14495;48.116;11.676;2023-10-08T02:18:18;96272.38;;;17.48;54.04
26937;BME280;14495;48.116;11.676;2023-10-08T02:20:44;96271.66;;;17.46;54.69
26937;BME280;14495;48.116;11.676;2023-10-08T02:23:09;96267.78;;;17.50;54.36
26937;BME280;14495;48.116;11.676;2023-10-08T02:25:37;96259.66;;;17.42;54.66
26937;BME280;14495;48.116;11.676;2023-10-08T02:28:03;96258.06;;;17.39;55.05
26937;BME280;14495;48.116;11.676;2023-10-08T02:30:29;96254.81;;;17.47;54.99
26937;BME280;14495;48.116;11.676;2023-10-08T02:32:54;96250.72;;;17.54;54.72
26937;BME280;14495;48.116;11.676;2023-10-08T02:35:19;96253.63;;;17.51;54.67
26937;BME280;14495;48.116;11.676;2023-10-08T02:37:45;96256.25;;;17.62;53.80
26937;BME280;14495;48.116;11.676;2023-10-08T02:40:11;96256.84;;;17.54;53.78
26937;BME280;14495;48.116;11.676;2023-10-08T02:42:52;96248.13;;;17.43;54.35
26937;BME280;14495;48.116;11.676;2023-10-08T02:45:25;96257.84;;;17.42;54.74
26937;BME280;14495;48.116;11.676;2023-10-08T02:47:50;96252.47;;;17.32;55.36
26937;BME280;14495;48.116;11.676;2023-10-08T02:50:18;96244.06;;;17.27;54.99
26937;BME280;14495;48.116;11.676;2023-10-08T02:52:44;96244.88;;;17.28;54.99
26937;BME280;14495;48.116;11.676;2023-10-08T02:55:12;96245.50;;;17.20;55.36
26937;BME280;14495;48.116;11.676;2023-10-08T02:57:49;96247.31;;;17.19;55.70
26937;BME280;14495;48.116;11.676;2023-10-08T03:00:16;96244.66;;;17.19;54.95
26937;BME280;14495;48.116;11.676;2023-10-08T03:02:45;96240.84;;;17.12;55.38
26937;BME280;14495;48.116;11.676;2023-10-08T03:05:11;96233.25;;;17.08;56.13
26937;BME280;14495;48.116;11.676;2023-10-08T03:07:38;96236.38;;;17.02;55.71
26937;BME280;14495;48.116;11.676;2023-10-08T03:10:05;96240.69;;;17.03;55.53
26937;BME280;14495;48.116;11.676;2023-10-08T03:12:34;96237.00;;;16.94;56.09
26937;BME280;14495;48.116;11.676;2023-10-08T03:15:00;96234.22;;;16.84;56.11
26937;BME280;14495;48.116;11.676;2023-10-08T03:17:37;96235.19;;;16.83;56.15
26937;BME280;14495;48.116;11.676;2023-10-08T03:20:03;96238.53;;;16.85;56.19
26937;BME280;14495;48.116;11.676;2023-10-08T03:22:47;96236.84;;;16.84;56.25
26937;BME280;14495;48.116;11.676;2023-10-08T03:25:13;96225.91;;;16.77;56.07
26937;BME280;14495;48.116;11.676;2023-10-08T03:27:43;96233.94;;;16.76;56.78
26937;BME280;14495;48.116;11.676;2023-10-08T03:30:09;96230.22;;;16.67;57.02
26937;BME280;14495;48.116;11.676;2023-10-08T03:32:45;96227.81;;;16.64;56.46
26937;BME280;14495;48.116;11.676;2023-10-08T03:35:10;96227.69;;;16.66;56.54
26937;BME280;14495;48.116;11.676;2023-10-08T03:37:36;96236.81;;;16.61;57.44
26937;BME280;14495;48.116;11.676;2023-10-08T03:40:07;96233.44;;;16.59;56.89
26937;BME280;14495;48.116;11.676;2023-10-08T03:42:50;96231.63;;;16.60;57.04
26937;BME280;14495;48.116;11.676;2023-10-08T03:45:15;96236.19;;;16.58;57.62
26937;BME280;14495;48.116;11.676;2023-10-08T03:47:48;96228.16;;;16.59;56.87
26937;BME280;14495;48.116;11.676;2023-10-08T03:50:30;96233.09;;;16.53;57.76
26937;BME280;14495;48.116;11.676;2023-10-08T03:53:06;96234.88;;;16.52;57.57
26937;BME280;14495;48.116;11.676;2023-10-08T03:55:40;96231.41;;;16.52;57.63
26937;BME280;14495;48.116;11.676;2023-10-08T03:58:09;96231.16;;;16.55;58.15
26937;BME280;14495;48.116;11.676;2023-10-08T04:00:57;96229.69;;;16.51;57.65
26937;BME280;14495;48.116;11.676;2023-10-08T04:03:34;96225.28;;;16.51;57.75
26937;BME280;14495;48.116;11.676;2023-10-08T04:06:20;96226.75;;;16.67;56.79
26937;BME280;14495;48.116;11.676;2023-10-08T04:08:53;96229.97;;;16.59;57.42
26937;BME280;14495;48.116;11.676;2023-10-08T04:11:37;96221.22;;;16.58;58.87
26937;BME280;14495;48.116;11.676;2023-10-08T04:14:29;96224.19;;;16.54;58.92
26937;BME280;14495;48.116;11.676;2023-10-08T04:16:55;96226.63;;;16.57;59.30
26937;BME280;14495;48.116;11.676;2023-10-08T04:19:22;96227.81;;;16.53;59.66
26937;BME280;14495;48.116;11.676;2023-10-08T04:21:55;96233.66;;;16.45;60.19
26937;BME280;14495;48.116;11.676;2023-10-08T04:24:26;96231.63;;;16.49;59.35
26937;BME280;14495;48.116;11.676;2023-10-08T04:27:00;96228.75;;;16.40;59.42
26937;BME280;14495;48.116;11.676;2023-10-08T04:29:30;96231.38;;;16.40;59.93
26937;BME280;14495;48.116;11.676;2023-10-08T04:31:59;96229.81;;;16.38;61.41
26937;BME280;14495;48.116;11.676;2023-10-08T04:34:47;96225.59;;;16.35;59.89
26937;BME280;14495;48.116;11.676;2023-10-08T04:37:15;96223.06;;;16.34;60.41
26937;BME280;14495;48.116;11.676;2023-10-08T04:39:46;96225.25;;;16.29;61.94
26937;BME280;14495;48.116;11.676;2023-10-08T04:42:23;96217.78;;;16.22;61.66
26937;BME280;14495;48.116;11.676;2023-10-08T04:44:51;96211.41;;;16.14;62.29
26937;BME280;14495;48.116;11.676;2023-10-08T04:47:17;96213.31;;;16.12;62.39
26937;BME280;14495;48.116;11.676;2023-10-08T04:49:58;96217.53;;;16.14;62.82
26937;BME280;14495;48.116;11.676;2023-10-08T04:52:23;96217.13;;;16.08;63.35
26937;BME280;14495;48.116;11.676;2023-10-08T04:54:52;96215.81;;;16.02;63.70
26937;BME280;14495;48.116;11.676;2023-10-08T04:57:20;96230.69;;;16.03;63.43
26937;BME280;14495;48.116;11.676;2023-10-08T04:59:51;96222.88;;;16.01;63.12
26937;BME280;14495;48.116;11.676;2023-10-08T05:02:19;96221.56;;;16.07;64.49
26937;BME280;14495;48.116;11.676;2023-10-08T05:04:46;96220.50;;;16.10;62.28
26937;BME280;14495;48.116;11.676;2023-10-08T05:07:32;96223.13;;;16.10;63.01
26937;BME280;14495;48.116;11.676;2023-10-08T05:10:10;96241.25;;;16.14;62.08
26937;BME280;14495;48.116;11.676;2023-10-08T05:12:37;96241.47;;;16.11;62.06
26937;BME280;14495;48.116;11.676;2023-10-08T05:15:08;96246.03;;;16.09;62.03
26937;BME280;14495;48.116;11.676;2023-10-08T05:17:43;96242.88;;;16.04;63.38
26937;BME280;14495;48.116;11.676;2023-10-08T05:20:23;96248.63;;;15.98;64.68
26937;BME280;14495;48.116;11.676;2023-10-08T05:23:11;96246.19;;;15.95;63.80
26937;BME280;14495;48.116;11.676;2023-10-08T05:26:06;96251.25;;;15.98;64.09
26937;BME280;14495;48.116;11.676;2023-10-08T05:28:40;96254.09;;;15.95;63.64
26937;BME280;14495;48.116;11.676;2023-10-08T05:31:28;96265.63;;;15.94;62.58
26937;BME280;14495;48.116;11.676;2023-10-08T05:34:12;96260.34;;;15.94;62.43
26937;BME280;14495;48.116;11.676;2023-10-08T05:36:58;96272.84;;;16.03;62.33
26937;BME280;14495;48.116;11.676;2023-10-08T05:39:46;96276.09;;;16.07;63.45
26937;BME280;14495;48.116;11.676;2023-10-08T05:42:21;96293.06;;;16.02;63.49
26937;BME280;14495;48.116;11.676;2023-10-08T05:44:56;96306.09;;;15.93;65.55
26937;BME280;14495;48.116;11.676;2023-10-08T05:47:34;96301.16;;;15.88;66.33
26937;BME280;14495;48.116;11.676;2023-10-08T05:50:00;96313.00;;;15.82;66.58
26937;BME280;14495;48.116;11.676;2023-10-08T05:52:43;96314.88;;;15.80;67.48
26937;BME280;14495;48.116;11.676;2023-10-08T05:55:25;96328.81;;;15.82;65.53
26937;BME280;14495;48.116;11.676;2023-10-08T05:57:58;96325.94;;;15.85;63.87
26937;BME280;14495;48.116;11.676;2023-10-08T06:00:50;96336.53;;;15.97;64.18
26937;BME280;14495;48.116;11.676;2023-10-08T06:03:16;96340.41;;;16.04;64.86
26937;BME280;14495;48.116;11.676;2023-10-08T06:06:08;96353.09;;;16.23;62.35
26937;BME280;14495;48.116;11.676;2023-10-08T06:08:37;96358.09;;;16.39;60.17
26937;BME280;14495;48.116;11.676;2023-10-08T06:11:36;96361.69;;;16.38;61.75
26937;BME280;14495;48.116;11.676;2023-10-08T06:14:21;96369.47;;;16.39;62.00
26937;BME280;14495;48.116;11.676;2023-10-08T06:17:08;96361.91;;;16.35;63.86
26937;BME280;14495;48.116;11.676;2023-10-08T06:19:50;96359.06;;;16.38;62.21
26937;BME280;14495;48.116;11.676;2023-10-08T06:22:19;96365.06;;;16.40;62.57
26937;BME280;14495;48.116;11.676;2023-10-08T06:24:51;96368.78;;;16.49;60.47
26937;BME280;14495;48.116;11.676;2023-10-08T06:27:36;96370.25;;;16.53;62.91
26937;BME280;14495;48.116;11.676;2023-10-08T06:30:01;96366.53;;;16.55;60.40
26937;BME280;14495;48.116;11.676;2023-10-08T06:32:29;96376.53;;;16.63;60.39
26937;BME280;14495;48.116;11.676;2023-10-08T06:34:55;96372.00;;;16.76;58.66
26937;BME280;14495;48.116;11.676;2023-10-08T06:37:21;96369.81;;;16.94;59.09
26937;BME280;14495;48.116;11.676;2023-10-08T06:39:47;96363.94;;;17.13;57.46
26937;BME280;14495;48.116;11.676;2023-10-08T06:42:13;96368.88;;;17.07;58.76
26937;BME280;14495;48.116;11.676;2023-10-08T06:44:40;96357.47;;;17.06;58.14
26937;BME280;14495;48.116;11.676;2023-10-08T06:47:10;96352.78;;;17.10;58.81
26937;BME280;14495;48.116;11.676;2023-10-08T06:49:36;96355.81;;;17.16;58.40
26937;BME280;14495;48.116;11.676;2023-10-08T06:52:04;96351.41;;;17.51;57.29
26937;BME280;14495;48.116;11.676;2023-10-08T06:54:29;96347.16;;;17.48;57.50
26937;BME280;14495;48.116;11.676;2023-10-08T06:56:56;96349.09;;;17.46;57.21
26937;BME280;14495;48.116;11.676;2023-10-08T06:59:22;96358.72;;;17.47;58.49
26937;BME280;14495;48.116;11.676;2023-10-08T07:01:48;96356.31;;;17.44;58.46
26937;BME280;14495;48.116;11.676;2023-10-08T07:04:16;96365.78;;;17.47;58.34
26937;BME280;14495;48.116;11.676;2023-10-08T07:06:44;96360.50;;;17.58;57.74
26937;BME280;14495;48.116;11.676;2023-10-08T07:09:12;96359.91;;;17.66;57.79
26937;BME280;14495;48.116;11.676;2023-10-08T07:11:53;96358.56;;;17.83;57.79
26937;BME280;14495;48.116;11.676;2023-10-08T07:14:24;96350.16;;;18.00;57.87
26937;BME280;14495;48.116;11.676;2023-10-08T07:16:58;96354.94;;;18.18;56.98
26937;BME280;14495;48.116;11.676;2023-10-08T07:19:28;96364.31;;;18.43;57.76
26937;BME280;14495;48.116;11.676;2023-10-08T07:22:13;96364.91;;;18.46;57.89
26937;BME280;14495;48.116;11.676;2023-10-08T07:24:47;96357.97;;;18.34;57.55
26937;BME280;14495;48.116;11.676;2023-10-08T07:27:17;96352.69;;;18.34;57.72
26937;BME280;14495;48.116;11.676;2023-10-08T07:29:47;96349.03;;;18.46;57.71
26937;BME280;14495;48.116;11.676;2023-10-08T07:32:12;96345.56;;;18.67;56.64
26937;BME280;14495;48.116;11.676;2023-10-08T07:34:40;96344.69;;;18.99;57.75
26937;BME280;14495;48.116;11.676;2023-10-08T07:37:06;96336.72;;;19.50;57.12
26937;BME280;14495;48.116;11.676;2023-10-08T07:39:31;96336.94;;;19.68;56.59
26937;BME280;14495;48.116;11.676;2023-10-08T07:41:58;96337.44;;;19.74;55.34
26937;BME280;14495;48.116;11.676;2023-10-08T07:44:25;96334.00;;;20.02;56.30
26937;BME280;14495;48.116;11.676;2023-10-08T07:46:53;96334.50;;;19.77;57.02
26937;BME280;14495;48.116;11.676;2023-10-08T07:49:20;96333.94;;;19.73;57.65
26937;BME280;14495;48.116;11.676;2023-10-08T07:51:45;96334.56;;;19.65;57.20
26937;BME280;14495;48.116;11.676;2023-10-08T07:54:24;96331.50;;;19.60;57.75
26937;BME280;14495;48.116;11.676;2023-10-08T07:56:50;96344.06;;;19.37;60.76
26937;BME280;14495;48.116;11.676;2023-10-08T07:59:24;96353.59;;;19.40;57.88
26937;BME280;14495;48.116;11.676;2023-10-08T08:01:50;96361.06;;;19.25;59.74
26937;BME280;14495;48.116;11.676;2023-10-08T08:04:18;96363.44;;;19.07;60.19
26937;BME280;14495;48.116;11.676;2023-10-08T08:06:51;96356.28;;;18.98;59.72
26937;BME280;14495;48.116;11.676;2023-10-08T08:09:17;96353.75;;;18.96;60.01
26937;BME280;14495;48.116;11.676;2023-10-08T08:11:46;96357.88;;;18.89;59.79
26937;BME280;14495;48.116;11.676;2023-10-08T08:14:13;96353.09;;;19.04;58.12
26937;BME280;14495;48.116;11.676;2023-10-08T08:16:45;96355.16;;;19.21;59.33
26937;BME280;14495;48.116;11.676;2023-10-08T08:19:14;96349.81;;;19.42;59.22
26937;BME280;14495;48.116;11.676;2023-10-08T08:21:46;96349.16;;;19.50;59.47
26937;BME280;14495;48.116;11.676;2023-10-08T08:24:14;96356.03;;;19.53;58.04
26937;BME280;14495;48.116;11.676;2023-10-08T08:26:55;96354.44;;;19.40;57.73
26937;BME280;14495;48.116;11.676;2023-10-08T08:29:32;96361.09;;;19.35;59.18
26937;BME280;14495;48.116;11.676;2023-10-08T08:32:09;96352.84;;;19.38;58.63
26937;BME280;14495;48.116;11.676;2023-10-08T08:34:38;96362.50;;;19.39;58.46
26937;BME280;14495;48.116;11.676;2023-10-08T08:37:03;96365.34;;;19.26;59.51
26937;BME280;14495;48.116;11.676;2023-10-08T08:39:28;96369.84;;;19.25;59.86
26937;BME280;14495;48.116;11.676;2023-10-08T08:42:01;96377.53;;;19.07;61.19
26937;BME280;14495;48.116;11.676;2023-10-08T08:44:35;96379.47;;;19.05;60.48
26937;BME280;14495;48.116;11.676;2023-10-08T08:47:05;96374.28;;;19.04;61.13
26937;BME280;14495;48.116;11.676;2023-10-08T08:49:36;96387.94;;;18.99;60.42
26937;BME280;14495;48.116;11.676;2023-10-08T08:52:04;96378.88;;;19.02;60.86
26937;BME280;14495;48.116;11.676;2023-10-08T08:54:30;96379.00;;;19.00;60.96
26937;BME280;14495;48.116;11.676;2023-10-08T08:57:03;96369.69;;;19.06;61.28
26937;BME280;14495;48.116;11.676;2023-10-08T08:59:51;96381.66;;;19.00;61.02
26937;BME280;14495;48.116;11.676;2023-10-08T09:02:20;96369.13;;;19.02;61.28
26937;BME280;14495;48.116;11.676;2023-10-08T09:04:48;96363.97;;;19.01;61.58
26937;BME280;14495;48.116;11.676;2023-10-08T09:07:14;96357.31;;;19.06;60.94
26937;BME280;14495;48.116;11.676;2023-10-08T09:09:39;96356.75;;;19.03;61.00
26937;BME280;14495;48.116;11.676;2023-10-08T09:12:05;96345.44;;;19.01;62.93
26937;BME280;14495;48.116;11.676;2023-10-08T09:14:33;96349.50;;;19.05;62.20
26937;BME280;14495;48.116;11.676;2023-10-08T09:17:01;96349.13;;;19.19;60.69
26937;BME280;14495;48.116;11.676;2023-10-08T09:19:30;96355.34;;;19.29;61.42
26937;BME280;14495;48.116;11.676;2023-10-08T09:22:07;96357.56;;;19.55;60.74
26937;BME280;14495;48.116;11.676;2023-10-08T09:24:37;96360.81;;;19.68;61.98
26937;BME280;14495;48.116;11.676;2023-10-08T09:27:10;96359.16;;;19.67;61.90
26937;BME280;14495;48.116;11.676;2023-10-08T09:29:43;96373.81;;;19.72;61.99
26937;BME280;14495;48.116;11.676;2023-10-08T09:32:12;96374.78;;;19.70;62.05
26937;BME280;14495;48.116;11.676;2023-10-08T09:34:48;96390.09;;;19.67;63.15
26937;BME280;14495;48.116;11.676;2023-10-08T09:37:16;96391.97;;;19.76;62.64
26937;BME280;14495;48.116;11.676;2023-10-08T09:39:42;96388.25;;;19.79;61.93
26937;BME280;14495;48.116;11.676;2023-10-08T09:42:11;96391.13;;;20.06;62.89
26937;BME280;14495;48.116;11.676;2023-10-08T09:44:37;96399.66;;;20.20;60.45
26937;BME280;14495;48.116;11.676;2023-10-08T09:47:07;96395.25;;;20.50;62.02
26937;BME280;14495;48.116;11.676;2023-10-08T09:49:39;96387.47;;;20.77;61.62
26937;BME280;14495;48.116;11.676;2023-10-08T09:52:08;96395.00;;;20.92;61.95
26937;BME280;14495;48.116;11.676;2023-10-08T09:54:43;96403.94;;;21.10;61.09
26937;BME280;14495;48.116;11.676;2023-10-08T09:57:10;96401.94;;;21.51;60.12
26937;BME280;14495;48.116;11.676;2023-10-08T09:59:39;96413.91;;;21.75;59.65
26937;BME280;14495;48.116;11.676;2023-10-08T10:02:06;96418.22;;;21.76;59.92
26937;BME280;14495;48.116;11.676;2023-10-08T10:04:35;96418.66;;;22.09;60.69
26937;BME280;14495;48.116;11.676;2023-10-08T10:07:09;96420.22;;;22.01;59.56
26937;BME280;14495;48.116;11.676;2023-10-08T10:09:38;96423.34;;;21.87;60.74
26937;BME280;14495;48.116;11.676;2023-10-08T10:12:05;96426.16;;;21.86;60.12
26937;BME280;14495;48.116;11.676;2023-10-08T10:17:12;96429.25;;;21.81;60.58
26937;BME280;14495;48.116;11.676;2023-10-08T10:19:40;96428.09;;;21.93;60.34
26937;BME280;14495;48.116;11.676;2023-10-08T10:22:13;96422.28;;;21.70;60.09
26937;BME280;14495;48.116;11.676;2023-10-08T10:24:41;96427.06;;;21.67;60.83
26937;BME280;14495;48.116;11.676;2023-10-08T10:27:14;96422.50;;;21.49;61.97
26937;BME280;14495;48.116;11.676;2023-10-08T10:29:43;96430.78;;;21.27;59.91
26937;BME280;14495;48.116;11.676;2023-10-08T10:32:14;96438.88;;;21.15;61.17
26937;BME280;14495;48.116;11.676;2023-10-08T10:34:44;96442.81;;;21.01;61.44
26937;BME280;14495;48.116;11.676;2023-10-08T10:37:13;96441.44;;;20.97;62.46
26937;BME280;14495;48.116;11.676;2023-10-08T10:39:57;96446.72;;;20.88;64.37
26937;BME280;14495;48.116;11.676;2023-10-08T10:42:27;96440.44;;;20.79;64.11
26937;BME280;14495;48.116;11.676;2023-10-08T10:44:54;96444.03;;;20.58;61.88
26937;BME280;14495;48.116;11.676;2023-10-08T10:47:21;96442.72;;;20.33;62.93
26937;BME280;14495;48.116;11.676;2023-10-08T10:49:49;96442.59;;;20.44;63.10
26937;BME280;14495;48.116;11.676;2023-10-08T10:52:25;96436.84;;;20.39;64.70
26937;BME280;14495;48.116;11.676;2023-10-08T10:55:09;96436.31;;;20.45;64.05
26937;BME280;14495;48.116;11.676;2023-10-08T10:57:41;96429.44;;;20.23;64.54
26937;BME280;14495;48.116;11.676;2023-10-08T11:00:09;96427.47;;;20.25;63.88
26937;BME280;14495;48.116;11.676;2023-10-08T11:02:56;96423.00;;;20.26;64.84
26937;BME280;14495;48.116;11.676;2023-10-08T11:05:26;96423.28;;;20.23;65.78
26937;BME280;14495;48.116;11.676;2023-10-08T11:07:58;96423.38;;;20.12;64.99
26937;BME280;14495;48.116;11.676;2023-10-08T11:10:37;96427.00;;;20.11;64.22
26937;BME280;14495;48.116;11.676;2023-10-08T11:13:04;96413.31;;;20.05;66.76
26937;BME280;14495;48.116;11.676;2023-10-08T11:15:30;96400.88;;;20.06;65.47
26937;BME280;14495;48.116;11.676;2023-10-08T11:18:22;96399.94;;;20.17;66.67
26937;BME280;14495;48.116;11.676;2023-10-08T11:20:50;96396.19;;;20.19;65.48
26937;BME280;14495;48.116;11.676;2023-10-08T11:23:48;96395.31;;;20.19;65.79
26937;BME280;14495;48.116;11.676;2023-10-08T11:26:25;96387.63;;;20.06;66.88
26937;BME280;14495;48.116;11.676;2023-10-08T11:29:02;96388.28;;;19.98;66.07
26937;BME280;14495;48.116;11.676;2023-10-08T11:31:29;96396.25;;;19.98;66.58
26937;BME280;14495;48.116;11.676;2023-10-08T11:34:02;96397.09;;;19.99;66.62
26937;BME280;14495;48.116;11.676;2023-10-08T11:36:35;96407.41;;;19.92;67.58
26937;BME280;14495;48.116;11.676;2023-10-08T11:39:14;96406.88;;;19.98;67.61
26937;BME280;14495;48.116;11.676;2023-10-08T11:41:59;96390.09;;;19.88;67.72
26937;BME280;14495;48.116;11.676;2023-10-08T11:44:32;96399.59;;;20.00;68.63
26937;BME280;14495;48.116;11.676;2023-10-08T11:47:01;96395.06;;;20.12;67.70
26937;BME280;14495;48.116;11.676;2023-10-08T11:49:37;96391.00;;;20.18;67.59
26937;BME280;14495;48.116;11.676;2023-10-08T11:52:02;96391.16;;;20.26;67.30
26937;BME280;14495;48.116;11.676;2023-10-08T11:54:29;96387.53;;;20.27;66.22
26937;BME280;14495;48.116;11.676;2023-10-08T11:56:59;96386.41;;;20.20;66.50
26937;BME280;14495;48.116;11.676;2023-10-08T11:59:26;96384.06;;;20.36;65.87
26937;BME280;14495;48.116;11.676;2023-10-08T12:01:53;96390.06;;;20.38;66.49
26937;BME280;14495;48.116;11.676;2023-10-08T12:04:21;96385.31;;;20.52;66.44
26937;BME280;14495;48.116;11.676;2023-10-08T12:06:47;96388.25;;;20.48;66.91
26937;BME280;14495;48.116;11.676;2023-10-08T12:09:15;96389.63;;;20.33;66.17
26937;BME280;14495;48.116;11.676;2023-10-08T12:11:41;96388.13;;;20.40;67.92
26937;BME280;14495;48.116;11.676;2023-10-08T12:14:07;96391.72;;;20.30;66.39
26937;BME280;14495;48.116;11.676;2023-10-08T12:16:33;96389.06;;;20.20;65.53
26937;BME280;14495;48.116;11.676;2023-10-08T12:19:02;96386.66;;;20.17;65.65
26937;BME280;14495;48.116;11.676;2023-10-08T12:21:40;96395.19;;;20.11;66.22
26937;BME280;14495;48.116;11.676;2023-10-08T12:24:06;96389.00;;;20.00;66.43
26937;BME280;14495;48.116;11.676;2023-10-08T12:26:34;96394.59;;;19.97;66.01
26937;BME280;14495;48.116;11.676;2023-10-08T12:28:59;96391.50;;;19.92;66.11
26937;BME280;14495;48.116;11.676;2023-10-08T12:31:27;96387.25;;;19.80;68.94
26937;BME280;14495;48.116;11.676;2023-10-08T12:33:54;96396.97;;;19.69;67.17
26937;BME280;14495;48.116;11.676;2023-10-08T12:36:25;96391.34;;;19.63;67.70
26937;BME280;14495;48.116;11.676;2023-10-08T12:38:58;96396.31;;;19.56;66.41
26937;BME280;14495;48.116;11.676;2023-10-08T12:41:27;96402.38;;;19.58;66.83
26937;BME280;14495;48.116;11.676;2023-10-08T12:43:54;96400.53;;;19.59;67.34
26937;BME280;14495;48.116;11.676;2023-10-08T12:46:20;96400.22;;;19.52;67.55
26937;BME280;14495;48.116;11.676;2023-10-08T12:48:52;96393.13;;;19.53;67.64
26937;BME280;14495;48.116;11.676;2023-10-08T12:51:20;96392.69;;;19.47;70.78
26937;BME280;14495;48.116;11.676;2023-10-08T12:53:52;96384.31;;;19.52;70.41
26937;BME280;14495;48.116;11.676;2023-10-08T12:56:34;96379.91;;;19.62;68.07
26937;BME280;14495;48.116;11.676;2023-10-08T12:59:22;96373.94;;;19.70;69.33
26937;BME280;14495;48.116;11.676;2023-10-08T13:01:49;96368.00;;;19.78;67.12
26937;BME280;14495;48.116;11.676;2023-10-08T13:04:21;96347.34;;;19.81;68.12
26937;BME280;14495;48.116;11.676;2023-10-08T13:07:00;96345.59;;;19.70;68.63
26937;BME280;14495;48.116;11.676;2023-10-08T13:09:28;96339.34;;;19.72;69.33
26937;BME280;14495;48.116;11.676;2023-10-08T13:11:56;96346.38;;;19.82;67.81
26937;BME280;14495;48.116;11.676;2023-10-08T13:14:27;96337.56;;;19.82;68.18
26937;BME280;14495;48.116;11.676;2023-10-08T13:16:52;96346.97;;;19.96;67.45